Time;durP1;ratioP1;P1;durP2;ratioP2;P2;SDS_P1;SDS_P2;PMS_P1;PMS_P2;Temp;Humidity;BMP_temperature;BMP_pressure;BME280_temperature;BME280_humidity;BME280_pressure;Samples;Min_cycle;Max_cycle;Signal;HPM_P1;HPM_P2
2022/11/03 00:01:12;;;;;;;1.70;1.60;;;;;;;;;;5097736;28;20280;-64
2022/11/03 00:03:40;;;;;;;1.77;1.60;;;;;;;;;;5100003;28;20219;-63
2022/11/03 00:06:08;;;;;;;1.80;1.70;;;;;;;;;;5100032;28;20243;-63
2022/11/03 00:08:37;;;;;;;2.00;1.90;;;;;;;;;;5099874;28;20211;-64
2022/11/03 00:11:07;;;;;;;1.55;1.45;;;;;;;;;;5100379;28;20200;-64
2022/11/03 00:13:35;;;;;;;1.70;1.60;;;;;;;;;;5100156;28;20290;-64
2022/11/03 00:16:03;;;;;;;1.70;1.60;;;;;;;;;;5100304;28;20203;-63
2022/11/03 00:18:31;;;;;;;1.50;1.40;;;;;;;;;;5100414;28;20336;-63
2022/11/03 00:20:59;;;;;;;1.80;1.70;;;;;;;;;;5099626;28;20334;-63
2022/11/03 00:23:31;;;;;;;1.70;1.60;;;;;;;;;;5100164;28;20234;-63
2022/11/03 00:26:08;;;;;;;1.90;1.80;;;;;;;;;;5099863;28;20211;-64
2022/11/03 00:28:36;;;;;;;1.92;1.80;;;;;;;;;;5098558;28;20207;-64
2022/11/03 00:31:07;;;;;;;1.58;1.48;;;;;;;;;;5099699;28;20199;-64
2022/11/03 00:33:34;;;;;;;1.90;1.80;;;;;;;;;;5099886;28;20315;-64
2022/11/03 00:36:02;;;;;;;1.80;1.70;;;;;;;;;;5099500;28;20215;-65
2022/11/03 00:38:30;;;;;;;1.70;1.60;;;;;;;;;;5099516;28;20207;-63
2022/11/03 00:40:59;;;;;;;1.58;1.48;;;;;;;;;;5099249;28;20608;-63
2022/11/03 00:43:29;;;;;;;1.77;1.63;;;;;;;;;;5099365;28;20214;-63
2022/11/03 00:45:57;;;;;;;2.05;1.80;;;;;;;;;;5099124;28;20203;-64
2022/11/03 00:48:31;;;;;;;2.08;1.90;;;;;;;;;;5099373;28;20207;-63
2022/11/03 00:51:03;;;;;;;1.65;1.52;;;;;;;;;;5099260;28;20581;-64
2022/11/03 00:53:31;;;;;;;1.75;1.65;;;;;;;;;;5098910;28;20258;-63
2022/11/03 00:55:59;;;;;;;1.50;1.20;;;;;;;;;;5098170;28;20200;-63
2022/11/03 00:58:28;;;;;;;1.75;1.65;;;;;;;;;;5099073;28;20206;-65
2022/11/03 01:01:06;;;;;;;1.90;1.70;;;;;;;;;;5099307;28;20228;-63
2022/11/03 01:03:34;;;;;;;1.85;1.73;;;;;;;;;;5099332;28;20211;-63
2022/11/03 01:08:47;;;;;;;1.60;1.50;;;;;;;;;;5098645;28;20537;-64
2022/11/03 01:14:02;;;;;;;1.75;1.65;;;;;;;;;;5098506;28;20190;-63
2022/11/03 01:16:30;;;;;;;1.73;1.63;;;;;;;;;;5098717;28;20204;-63
2022/11/03 01:18:58;;;;;;;2.03;1.83;;;;;;;;;;5098208;28;20203;-65
2022/11/03 01:21:26;;;;;;;1.60;1.50;;;;;;;;;;5098697;28;20231;-64
2022/11/03 01:23:53;;;;;;;1.90;1.70;;;;;;;;;;5097905;28;20204;-65
2022/11/03 01:26:21;;;;;;;1.55;1.45;;;;;;;;;;5098624;28;20277;-64
2022/11/03 01:28:49;;;;;;;1.85;1.73;;;;;;;;;;5098933;28;20326;-63
2022/11/03 01:31:19;;;;;;;1.70;1.60;;;;;;;;;;5097897;28;20200;-63
2022/11/03 01:33:47;;;;;;;1.80;1.70;;;;;;;;;;5098605;28;20207;-63
2022/11/03 01:36:15;;;;;;;1.50;1.40;;;;;;;;;;5098478;28;20211;-64
2022/11/03 01:38:44;;;;;;;1.65;1.55;;;;;;;;;;5099006;28;20208;-63
2022/11/03 01:41:13;;;;;;;1.83;1.73;;;;;;;;;;5098079;28;20224;-63
2022/11/03 01:43:41;;;;;;;1.90;1.60;;;;;;;;;;5098343;28;20203;-63
2022/11/03 01:46:13;;;;;;;1.67;1.58;;;;;;;;;;5098122;28;20211;-64
2022/11/03 01:48:43;;;;;;;1.58;1.48;;;;;;;;;;5098246;28;20203;-63
2022/11/03 01:51:13;;;;;;;1.83;1.73;;;;;;;;;;5097543;28;20210;-63
2022/11/03 01:53:42;;;;;;;1.65;1.55;;;;;;;;;;5098017;28;20243;-63
2022/11/03 01:56:10;;;;;;;1.70;1.60;;;;;;;;;;5098015;28;20493;-64
2022/11/03 01:58:40;;;;;;;1.80;1.70;;;;;;;;;;5098134;28;20214;-64
2022/11/03 02:01:08;;;;;;;1.88;1.70;;;;;;;;;;5097880;28;20224;-63
2022/11/03 02:03:38;;;;;;;1.60;1.50;;;;;;;;;;5097861;28;20585;-63
2022/11/03 02:06:08;;;;;;;1.60;1.50;;;;;;;;;;5098157;28;20211;-64
2022/11/03 02:08:37;;;;;;;2.33;1.80;;;;;;;;;;5098170;28;20250;-64
2022/11/03 02:12:05;;;;;;;1.75;1.65;;;;;;;;;;5097893;28;20208;-63
2022/11/03 02:13:52;;;;;;;1.63;1.52;;;;;;;;;;5098068;28;20298;-64
2022/11/03 02:16:21;;;;;;;1.75;1.65;;;;;;;;;;5097832;28;20210;-63
2022/11/03 02:18:50;;;;;;;1.70;1.60;;;;;;;;;;5097311;28;20213;-64
2022/11/03 02:21:26;;;;;;;1.70;1.60;;;;;;;;;;5097914;28;20235;-64
2022/11/03 02:23:57;;;;;;;1.63;1.52;;;;;;;;;;5097575;28;20210;-64
2022/11/03 02:26:27;;;;;;;1.70;1.60;;;;;;;;;;5097757;28;20250;-63
2022/11/03 02:28:55;;;;;;;1.40;1.30;;;;;;;;;;5097549;28;20207;-64
2022/11/03 02:31:27;;;;;;;1.73;1.63;;;;;;;;;;5098291;28;20303;-64
2022/11/03 02:33:57;;;;;;;1.90;1.63;;;;;;;;;;5097295;28;20223;-63
2022/11/03 02:36:28;;;;;;;1.80;1.70;;;;;;;;;;5098000;28;20514;-63
2022/11/03 02:38:58;;;;;;;1.40;1.30;;;;;;;;;;5097725;28;20208;-63
2022/11/03 02:41:28;;;;;;;1.90;1.63;;;;;;;;;;5097574;28;20527;-63
2022/11/03 02:43:56;;;;;;;1.88;1.35;;;;;;;;;;5100698;28;20268;-63
2022/11/03 02:46:25;;;;;;;1.60;1.50;;;;;;;;;;5101399;28;20290;-64
2022/11/03 02:48:53;;;;;;;1.70;1.50;;;;;;;;;;5101576;28;20589;-63
2022/11/03 02:51:21;;;;;;;1.60;1.50;;;;;;;;;;5101633;28;20538;-64
2022/11/03 02:53:54;;;;;;;1.80;1.70;;;;;;;;;;5101620;28;20203;-63
2022/11/03 02:56:23;;;;;;;1.75;1.50;;;;;;;;;;5101400;28;20207;-63
2022/11/03 02:58:55;;;;;;;1.52;1.40;;;;;;;;;;5101647;28;20298;-63
2022/11/03 03:01:28;;;;;;;1.50;1.40;;;;;;;;;;5101122;28;20219;-63
2022/11/03 03:03:59;;;;;;;1.65;1.52;;;;;;;;;;5101377;28;20211;-63
2022/11/03 03:06:29;;;;;;;1.60;1.50;;;;;;;;;;5101631;28;20544;-64
2022/11/03 03:09:05;;;;;;;1.77;1.67;;;;;;;;;;5101191;28;20605;-63
2022/11/03 03:11:37;;;;;;;1.90;1.80;;;;;;;;;;5101452;28;20207;-63
2022/11/03 03:14:10;;;;;;;1.90;1.70;;;;;;;;;;5101432;28;20302;-63
2022/11/03 03:16:42;;;;;;;1.73;1.63;;;;;;;;;;5100491;28;20296;-64
2022/11/03 03:19:14;;;;;;;2.00;1.80;;;;;;;;;;5101263;28;20248;-63
2022/11/03 03:21:44;;;;;;;1.80;1.67;;;;;;;;;;5100904;28;20228;-65
2022/11/03 03:24:16;;;;;;;1.80;1.70;;;;;;;;;;5101280;28;20230;-63
2022/11/03 03:26:45;;;;;;;1.70;1.60;;;;;;;;;;5101344;28;20729;-63
2022/11/03 03:29:16;;;;;;;1.52;1.42;;;;;;;;;;5101295;28;20212;-63
2022/11/03 03:31:46;;;;;;;1.88;1.77;;;;;;;;;;5100988;28;20248;-64
2022/11/03 03:34:14;;;;;;;1.80;1.70;;;;;;;;;;5100890;28;20222;-63
2022/11/03 03:36:43;;;;;;;1.60;1.50;;;;;;;;;;5100793;28;20207;-63
2022/11/03 03:39:12;;;;;;;1.77;1.67;;;;;;;;;;5100644;28;20547;-63
2022/11/03 03:41:40;;;;;;;1.80;1.70;;;;;;;;;;5100337;28;20227;-64
2022/11/03 03:44:09;;;;;;;1.80;1.70;;;;;;;;;;5081697;28;20216;-63
2022/11/03 03:46:41;;;;;;;1.77;1.67;;;;;;;;;;5079969;28;20320;-64
2022/11/03 03:49:08;;;;;;;1.70;1.60;;;;;;;;;;5080375;28;20230;-64
2022/11/03 03:51:37;;;;;;;1.58;1.48;;;;;;;;;;5080418;28;20255;-64
2022/11/03 03:54:04;;;;;;;1.70;1.60;;;;;;;;;;5079729;28;20614;-63
2022/11/03 03:56:33;;;;;;;1.83;1.50;;;;;;;;;;5079775;28;20212;-63
2022/11/03 03:59:02;;;;;;;1.65;1.55;;;;;;;;;;5080045;28;20204;-64
2022/11/03 04:01:29;;;;;;;1.65;1.55;;;;;;;;;;5080094;28;20204;-63
2022/11/03 04:03:59;;;;;;;2.03;1.65;;;;;;;;;;5079722;28;20581;-63
2022/11/03 04:06:26;;;;;;;1.75;1.65;;;;;;;;;;5079733;28;20329;-63
2022/11/03 04:08:54;;;;;;;1.60;1.50;;;;;;;;;;5080191;28;20537;-64
2022/11/03 04:22:24;;;;;;;1.67;1.58;;;;;;;;;;5099265;28;20624;-64
2022/11/03 04:24:52;;;;;;;1.60;1.50;;;;;;;;;;5100068;28;20457;-63
2022/11/03 04:27:30;;;;;;;1.80;1.70;;;;;;;;;;5099807;28;20203;-65
2022/11/03 04:30:03;;;;;;;1.63;1.52;;;;;;;;;;5099486;28;20306;-64
2022/11/03 04:32:31;;;;;;;1.50;1.40;;;;;;;;;;5099425;28;20231;-63
2022/11/03 04:35:00;;;;;;;1.90;1.80;;;;;;;;;;5099355;28;20203;-63
2022/11/03 04:37:29;;;;;;;1.70;1.60;;;;;;;;;;5095146;28;20208;-64
2022/11/03 04:39:59;;;;;;;1.70;1.60;;;;;;;;;;5098404;28;20261;-64
2022/11/03 04:42:27;;;;;;;1.95;1.77;;;;;;;;;;5098512;28;20330;-64
2022/11/03 04:44:55;;;;;;;1.52;1.42;;;;;;;;;;5099145;28;20207;-63
2022/11/03 04:47:23;;;;;;;1.73;1.63;;;;;;;;;;5098935;28;20210;-64
2022/11/03 04:49:50;;;;;;;1.75;1.40;;;;;;;;;;5098606;28;20204;-63
2022/11/03 04:52:20;;;;;;;1.67;1.58;;;;;;;;;;5098993;28;20206;-64
2022/11/03 04:54:49;;;;;;;1.40;1.30;;;;;;;;;;5098564;28;20576;-64
2022/11/03 04:57:18;;;;;;;1.40;1.30;;;;;;;;;;5098646;28;20263;-63
2022/11/03 04:59:47;;;;;;;1.40;1.30;;;;;;;;;;5098123;28;20210;-63
2022/11/03 05:02:16;;;;;;;1.60;1.50;;;;;;;;;;5098215;28;20326;-63
2022/11/03 05:04:44;;;;;;;1.67;1.55;;;;;;;;;;5098218;28;20214;-64
2022/11/03 05:07:21;;;;;;;1.60;1.50;;;;;;;;;;5078462;28;20297;-64
2022/11/03 05:09:50;;;;;;;1.70;1.60;;;;;;;;;;5078076;28;20756;-64
2022/11/03 05:12:17;;;;;;;1.70;1.60;;;;;;;;;;5078165;28;20210;-63
2022/11/03 05:14:45;;;;;;;1.75;1.60;;;;;;;;;;5078029;28;20211;-64
2022/11/03 05:17:19;;;;;;;1.73;1.63;;;;;;;;;;5077826;28;20205;-63
2022/11/03 05:19:46;;;;;;;1.40;1.30;;;;;;;;;;5069529;28;20240;-63
2022/11/03 05:22:16;;;;;;;1.90;1.40;;;;;;;;;;5077423;28;20228;-63
2022/11/03 05:24:43;;;;;;;1.65;1.45;;;;;;;;;;5077216;28;20204;-63
2022/11/03 05:27:15;;;;;;;1.40;1.30;;;;;;;;;;5077855;28;20212;-63
2022/11/03 05:29:43;;;;;;;1.45;1.35;;;;;;;;;;5077184;28;20227;-63
2022/11/03 05:32:12;;;;;;;1.50;1.40;;;;;;;;;;5077552;28;20207;-63
2022/11/03 05:34:42;;;;;;;1.40;1.30;;;;;;;;;;5077252;28;20568;-63
2022/11/03 05:37:21;;;;;;;1.30;1.20;;;;;;;;;;5077279;28;20200;-64
2022/11/03 05:39:49;;;;;;;1.60;1.50;;;;;;;;;;5076791;28;20253;-64
2022/11/03 05:42:21;;;;;;;1.35;1.30;;;;;;;;;;5076240;28;20224;-64
2022/11/03 05:44:49;;;;;;;1.40;1.30;;;;;;;;;;5076764;28;20205;-65
2022/11/03 05:47:19;;;;;;;1.40;1.30;;;;;;;;;;5075725;28;20211;-64
2022/11/03 05:49:47;;;;;;;1.50;1.40;;;;;;;;;;5076243;28;20511;-63
2022/11/03 05:52:16;;;;;;;1.83;1.40;;;;;;;;;;5075741;28;20196;-63
2022/11/03 05:54:43;;;;;;;1.58;1.42;;;;;;;;;;5076067;28;20211;-63
2022/11/03 05:57:11;;;;;;;1.70;1.60;;;;;;;;;;5075110;28;20196;-63
2022/11/03 05:59:40;;;;;;;1.88;1.38;;;;;;;;;;5076094;28;20219;-63
2022/11/03 06:02:15;;;;;;;1.20;1.10;;;;;;;;;;5074711;28;20220;-63
2022/11/03 06:04:42;;;;;;;1.77;1.40;;;;;;;;;;5074594;28;20196;-63
2022/11/03 06:07:24;;;;;;;1.42;1.30;;;;;;;;;;5074145;28;20601;-64
2022/11/03 06:09:52;;;;;;;1.42;1.33;;;;;;;;;;5075000;28;20214;-63
2022/11/03 06:12:21;;;;;;;2.50;1.65;;;;;;;;;;5074423;28;20258;-63
2022/11/03 06:14:50;;;;;;;1.50;1.40;;;;;;;;;;5074569;28;20287;-64
2022/11/03 06:17:21;;;;;;;1.42;1.30;;;;;;;;;;5073688;28;20201;-64
2022/11/03 06:19:49;;;;;;;1.40;1.30;;;;;;;;;;5082722;28;20656;-63
2022/11/03 06:22:19;;;;;;;2.08;1.30;;;;;;;;;;5093982;28;20540;-63
2022/11/03 06:24:47;;;;;;;2.13;1.35;;;;;;;;;;5054451;28;20227;-63
2022/11/03 06:27:17;;;;;;;1.67;1.42;;;;;;;;;;5054214;28;20197;-64
2022/11/03 06:29:46;;;;;;;1.35;1.25;;;;;;;;;;5054468;28;20204;-64
2022/11/03 06:32:15;;;;;;;1.55;1.17;;;;;;;;;;5054713;28;20237;-64
2022/11/03 06:34:44;;;;;;;1.52;1.20;;;;;;;;;;5054441;28;20212;-64
2022/11/03 06:37:16;;;;;;;1.35;1.25;;;;;;;;;;5054966;28;20208;-63
2022/11/03 06:39:43;;;;;;;2.85;1.70;;;;;;;;;;5054579;28;20205;-64
2022/11/03 06:42:15;;;;;;;3.08;1.63;;;;;;;;;;5053299;28;20216;-63
2022/11/03 06:44:43;;;;;;;3.50;1.90;;;;;;;;;;5054048;28;20205;-63
2022/11/03 06:47:19;;;;;;;4.50;2.10;;;;;;;;;;5053688;28;20641;-64
2022/11/03 06:49:47;;;;;;;4.40;2.10;;;;;;;;;;5052869;28;20208;-63
2022/11/03 06:52:21;;;;;;;3.83;2.38;;;;;;;;;;5073002;28;20227;-63
2022/11/03 06:54:49;;;;;;;4.55;2.53;;;;;;;;;;5074557;28;20234;-64
2022/11/03 06:57:17;;;;;;;4.53;2.72;;;;;;;;;;5074078;28;20555;-64
2022/11/03 06:59:45;;;;;;;4.97;3.00;;;;;;;;;;5073615;28;20630;-64
2022/11/03 07:02:26;;;;;;;4.57;2.95;;;;;;;;;;5074394;28;20204;-63
2022/11/03 07:04:55;;;;;;;4.15;3.17;;;;;;;;;;5074232;28;20480;-64
2022/11/03 07:07:25;;;;;;;6.20;3.75;;;;;;;;;;5074331;28;20219;-64
2022/11/03 07:09:53;;;;;;;4.72;3.28;;;;;;;;;;5074981;28;20196;-63
2022/11/03 07:12:21;;;;;;;6.72;3.58;;;;;;;;;;5081049;28;20222;-63
2022/11/03 07:14:48;;;;;;;5.57;3.30;;;;;;;;;;5093337;28;20282;-64
2022/11/03 07:17:18;;;;;;;6.88;3.55;;;;;;;;;;5094391;28;20465;-64
2022/11/03 07:19:46;;;;;;;4.65;3.47;;;;;;;;;;5062710;28;20652;-64
2022/11/03 07:22:19;;;;;;;6.30;3.58;;;;;;;;;;5094057;28;20207;-64
2022/11/03 07:24:51;;;;;;;6.72;4.15;;;;;;;;;;5108187;28;20585;-64
2022/11/03 07:27:21;;;;;;;4.90;3.72;;;;;;;;;;5114936;28;20203;-64
2022/11/03 07:29:50;;;;;;;5.72;3.97;;;;;;;;;;5116259;28;20199;-65
2022/11/03 07:32:19;;;;;;;10.25;4.03;;;;;;;;;;5119548;28;20195;-64
2022/11/03 07:34:48;;;;;;;5.60;3.90;;;;;;;;;;5118182;28;20203;-63
2022/11/03 07:37:19;;;;;;;5.60;3.95;;;;;;;;;;5117674;28;20333;-63
2022/11/03 07:39:47;;;;;;;7.78;4.10;;;;;;;;;;5117286;28;20199;-63
2022/11/03 07:42:16;;;;;;;7.50;4.10;;;;;;;;;;5114910;28;20773;-64
2022/11/03 07:44:43;;;;;;;6.97;4.10;;;;;;;;;;5118022;28;20218;-64
2022/11/03 07:47:12;;;;;;;6.90;3.85;;;;;;;;;;5096022;28;20208;-63
2022/11/03 07:49:40;;;;;;;6.40;4.32;;;;;;;;;;5098115;28;20445;-63
2022/11/03 07:52:10;;;;;;;5.93;3.95;;;;;;;;;;5097591;28;20206;-64
2022/11/03 07:54:39;;;;;;;7.13;4.10;;;;;;;;;;5090475;28;20192;-63
2022/11/03 07:57:11;;;;;;;6.63;3.83;;;;;;;;;;5075408;28;20299;-64
2022/11/03 07:59:39;;;;;;;7.25;4.22;;;;;;;;;;5076383;28;20203;-65
2022/11/03 08:02:16;;;;;;;7.65;4.20;;;;;;;;;;5080457;28;20188;-64
2022/11/03 08:04:44;;;;;;;7.90;4.18;;;;;;;;;;5098203;28;20219;-64
2022/11/03 08:07:11;;;;;;;5.68;3.83;;;;;;;;;;5094894;28;20196;-65
2022/11/03 08:09:40;;;;;;;5.43;3.88;;;;;;;;;;5095900;28;20222;-63
2022/11/03 08:12:08;;;;;;;6.82;3.90;;;;;;;;;;5095569;28;20188;-64
2022/11/03 08:14:36;;;;;;;6.55;3.88;;;;;;;;;;5086727;28;20579;-64
2022/11/03 08:17:04;;;;;;;5.90;3.50;;;;;;;;;;5094771;28;20200;-64
2022/11/03 08:19:31;;;;;;;6.63;4.10;;;;;;;;;;5093246;28;20234;-63
2022/11/03 08:21:59;;;;;;;8.10;3.78;;;;;;;;;;5076106;28;20254;-64
2022/11/03 08:24:26;;;;;;;6.10;4.10;;;;;;;;;;5091342;28;20216;-64
2022/11/03 08:26:55;;;;;;;7.03;3.80;;;;;;;;;;5096407;28;20203;-63
2022/11/03 08:29:25;;;;;;;4.72;3.75;;;;;;;;;;5092604;28;20188;-64
2022/11/03 08:31:53;;;;;;;6.07;3.60;;;;;;;;;;5093200;28;20208;-63
2022/11/03 08:34:20;;;;;;;8.55;3.83;;;;;;;;;;5084331;28;20188;-63
2022/11/03 08:36:48;;;;;;;8.75;3.92;;;;;;;;;;5088709;28;20206;-64
2022/11/03 08:39:16;;;;;;;5.75;3.55;;;;;;;;;;5083871;28;20265;-64
2022/11/03 08:41:43;;;;;;;5.28;3.30;;;;;;;;;;5078515;28;20295;-64
2022/11/03 08:44:12;;;;;;;8.77;3.90;;;;;;;;;;5075125;28;20219;-64
2022/11/03 08:46:39;;;;;;;4.43;3.40;;;;;;;;;;5075237;28;20266;-64
2022/11/03 08:49:07;;;;;;;5.70;3.38;;;;;;;;;;5074990;28;20197;-64
2022/11/03 08:51:34;;;;;;;4.95;3.55;;;;;;;;;;5083902;28;20188;-64
2022/11/03 08:54:02;;;;;;;5.28;3.50;;;;;;;;;;5096193;28;20499;-64
2022/11/03 08:56:29;;;;;;;6.00;3.47;;;;;;;;;;5085058;28;20728;-64
2022/11/03 08:58:56;;;;;;;3.72;3.25;;;;;;;;;;5088973;28;20207;-64
2022/11/03 09:01:25;;;;;;;4.95;3.35;;;;;;;;;;5095277;28;20200;-64
2022/11/03 09:03:52;;;;;;;4.03;3.10;;;;;;;;;;5078357;28;20216;-63
2022/11/03 09:06:20;;;;;;;4.30;3.25;;;;;;;;;;5075493;28;20495;-64
2022/11/03 09:08:47;;;;;;;3.75;2.90;;;;;;;;;;5075207;28;20208;-64
2022/11/03 09:11:14;;;;;;;5.38;3.38;;;;;;;;;;5074641;28;20192;-64
2022/11/03 09:13:43;;;;;;;3.85;3.05;;;;;;;;;;5076020;28;20207;-64
2022/11/03 09:16:11;;;;;;;4.97;3.10;;;;;;;;;;5075806;28;20258;-64
2022/11/03 09:18:40;;;;;;;3.85;2.67;;;;;;;;;;5075706;28;20209;-64
2022/11/03 09:21:08;;;;;;;3.13;2.55;;;;;;;;;;5075908;28;20242;-64
2022/11/03 09:23:35;;;;;;;3.63;2.85;;;;;;;;;;5075830;28;20231;-64
2022/11/03 09:26:04;;;;;;;4.63;3.35;;;;;;;;;;5075866;28;20280;-64
2022/11/03 09:28:32;;;;;;;3.78;2.78;;;;;;;;;;5075279;28;20200;-64
2022/11/03 09:30:59;;;;;;;4.40;2.95;;;;;;;;;;5075050;28;20205;-64
2022/11/03 09:33:27;;;;;;;3.72;2.90;;;;;;;;;;5074596;28;20349;-64
2022/11/03 09:35:55;;;;;;;4.10;2.70;;;;;;;;;;5074522;28;20210;-64
2022/11/03 09:38:23;;;;;;;4.32;2.80;;;;;;;;;;5075239;28;20202;-64
2022/11/03 09:40:50;;;;;;;4.63;3.08;;;;;;;;;;5075145;28;20302;-64
2022/11/03 09:43:18;;;;;;;4.05;3.05;;;;;;;;;;5075264;28;20713;-64
2022/11/03 09:45:46;;;;;;;3.75;2.97;;;;;;;;;;5075006;28;20215;-64
2022/11/03 09:48:13;;;;;;;4.10;2.97;;;;;;;;;;5074991;28;20298;-64
2022/11/03 09:50:41;;;;;;;3.50;2.67;;;;;;;;;;5075459;28;20203;-64
2022/11/03 09:53:12;;;;;;;4.95;3.03;;;;;;;;;;5073639;28;20204;-65
2022/11/03 09:55:40;;;;;;;5.13;2.20;;;;;;;;;;5074624;28;20204;-64
2022/11/03 09:58:11;;;;;;;4.05;2.50;;;;;;;;;;5075016;28;20208;-64
2022/11/03 10:00:38;;;;;;;2.85;2.47;;;;;;;;;;5076072;28;20216;-64
2022/11/03 10:03:05;;;;;;;3.30;2.40;;;;;;;;;;5074693;28;20295;-64
2022/11/03 10:05:34;;;;;;;4.22;3.00;;;;;;;;;;5074202;28;20473;-65
2022/11/03 10:08:03;;;;;;;2.95;2.47;;;;;;;;;;5073706;28;20206;-63
2022/11/03 10:10:32;;;;;;;3.58;2.60;;;;;;;;;;5075205;28;20254;-64
2022/11/03 10:13:00;;;;;;;2.85;2.42;;;;;;;;;;5074707;28;20196;-64
2022/11/03 10:15:28;;;;;;;4.82;2.60;;;;;;;;;;5074695;28;20196;-63
2022/11/03 10:17:56;;;;;;;4.10;2.50;;;;;;;;;;5074152;28;20208;-63
2022/11/03 10:20:24;;;;;;;3.17;2.60;;;;;;;;;;5085791;28;20241;-65
2022/11/03 10:22:52;;;;;;;3.40;2.35;;;;;;;;;;5094603;28;20204;-65
2022/11/03 10:25:35;;;;;;;2.78;2.42;;;;;;;;;;5094646;28;20654;-63
2022/11/03 10:28:12;;;;;;;3.13;2.33;;;;;;;;;;5095420;28;20573;-65
2022/11/03 10:30:48;;;;;;;3.72;2.97;;;;;;;;;;5095548;28;20226;-64
2022/11/03 10:33:30;;;;;;;2.55;2.20;;;;;;;;;;5093847;28;20360;-63
2022/11/03 10:35:59;;;;;;;2.22;2.03;;;;;;;;;;5091318;28;20207;-64
2022/11/03 10:38:27;;;;;;;2.72;2.25;;;;;;;;;;5094397;28;20269;-64
2022/11/03 10:40:57;;;;;;;2.67;2.25;;;;;;;;;;5094580;28;20290;-63
2022/11/03 10:43:24;;;;;;;3.05;2.08;;;;;;;;;;5093371;28;20209;-63
2022/11/03 10:46:10;;;;;;;3.85;2.28;;;;;;;;;;5094152;28;20199;-65
2022/11/03 10:48:37;;;;;;;3.30;2.03;;;;;;;;;;5093794;28;20218;-64
2022/11/03 10:51:05;;;;;;;2.88;2.00;;;;;;;;;;5094855;28;20211;-64
2022/11/03 10:53:32;;;;;;;3.88;2.08;;;;;;;;;;5093713;28;20218;-64
2022/11/03 10:56:03;;;;;;;2.85;1.90;;;;;;;;;;5094945;28;20202;-64
2022/11/03 10:58:31;;;;;;;3.30;2.00;;;;;;;;;;5094608;28;20204;-64
2022/11/03 11:00:58;;;;;;;2.97;2.10;;;;;;;;;;5092901;28;20205;-64
2022/11/03 11:03:27;;;;;;;2.22;1.80;;;;;;;;;;5093953;28;20199;-64
2022/11/03 11:05:56;;;;;;;2.35;1.92;;;;;;;;;;5096496;28;20623;-64
2022/11/03 11:08:24;;;;;;;3.47;2.17;;;;;;;;;;5096930;28;20207;-65
2022/11/03 11:10:52;;;;;;;2.10;1.90;;;;;;;;;;5097365;28;20226;-65
2022/11/03 11:13:27;;;;;;;1.95;1.70;;;;;;;;;;5097074;28;20210;-65
2022/11/03 11:15:56;;;;;;;2.65;1.80;;;;;;;;;;5096751;28;20721;-65
2022/11/03 11:18:42;;;;;;;2.63;1.85;;;;;;;;;;5097244;28;20207;-65
2022/11/03 11:21:25;;;;;;;2.17;1.80;;;;;;;;;;5097219;28;20230;-64
2022/11/03 11:23:52;;;;;;;1.83;1.70;;;;;;;;;;5096385;28;20318;-65
2022/11/03 11:26:37;;;;;;;1.63;1.50;;;;;;;;;;5095976;28;20635;-66
2022/11/03 11:29:22;;;;;;;1.85;1.58;;;;;;;;;;5096259;28;20212;-64
2022/11/03 11:31:51;;;;;;;2.50;1.80;;;;;;;;;;5080182;28;20758;-65
2022/11/03 11:34:37;;;;;;;2.50;1.58;;;;;;;;;;5096911;28;20223;-64
2022/11/03 11:37:23;;;;;;;2.05;1.50;;;;;;;;;;5096366;28;20200;-64
2022/11/03 11:39:51;;;;;;;1.98;1.67;;;;;;;;;;5097298;28;20701;-64
2022/11/03 11:42:19;;;;;;;2.38;1.75;;;;;;;;;;5096721;28;20234;-64
2022/11/03 11:44:57;;;;;;;2.40;1.60;;;;;;;;;;5096572;28;20592;-63
2022/11/03 11:47:28;;;;;;;2.17;1.40;;;;;;;;;;5097381;28;20230;-63
2022/11/03 11:50:10;;;;;;;1.50;1.40;;;;;;;;;;5095800;28;20207;-64
2022/11/03 11:52:41;;;;;;;2.05;1.50;;;;;;;;;;5078209;28;20260;-65
2022/11/03 11:55:17;;;;;;;2.70;1.70;;;;;;;;;;5096146;28;20210;-64
2022/11/03 11:57:45;;;;;;;1.60;1.50;;;;;;;;;;5097140;28;20597;-64
2022/11/03 12:00:19;;;;;;;1.83;1.40;;;;;;;;;;5096200;28;20214;-64
2022/11/03 12:02:48;;;;;;;1.60;1.50;;;;;;;;;;5096193;28;20480;-64
2022/11/03 12:05:20;;;;;;;1.92;1.60;;;;;;;;;;5096357;28;20258;-64
2022/11/03 12:07:48;;;;;;;1.95;1.30;;;;;;;;;;5095762;28;20199;-64
2022/11/03 12:10:16;;;;;;;1.65;1.42;;;;;;;;;;5095217;28;20265;-64
2022/11/03 12:12:43;;;;;;;1.98;1.45;;;;;;;;;;5094829;28;20204;-63
2022/11/03 12:15:29;;;;;;;1.63;1.45;;;;;;;;;;5095107;28;20200;-64
2022/11/03 12:17:57;;;;;;;1.67;1.20;;;;;;;;;;5095676;28;20209;-64
2022/11/03 12:20:46;;;;;;;1.52;1.38;;;;;;;;;;5093890;28;20231;-65
2022/11/03 12:23:28;;;;;;;1.40;1.30;;;;;;;;;;5095587;28;20196;-64
2022/11/03 12:25:56;;;;;;;42.95;3.85;;;;;;;;;;5094996;28;20230;-65
2022/11/03 12:28:39;;;;;;;1.92;1.35;;;;;;;;;;5095429;28;20310;-64
2022/11/03 12:31:06;;;;;;;2.53;1.38;;;;;;;;;;5091791;28;20507;-63
2022/11/03 12:33:35;;;;;;;2.45;1.20;;;;;;;;;;5094570;28;20295;-63
2022/11/03 12:36:02;;;;;;;2.30;1.40;;;;;;;;;;5094974;28;20195;-64
2022/11/03 12:38:29;;;;;;;1.40;1.30;;;;;;;;;;5094356;28;20210;-63
2022/11/03 12:41:19;;;;;;;1.83;1.40;;;;;;;;;;5094814;28;20204;-63
2022/11/03 12:43:44;;;;;;;1.80;1.30;;;;;;;;;;5095450;28;20200;-64
2022/11/03 12:46:12;;;;;;;1.33;1.23;;;;;;;;;;5095659;28;20246;-63
2022/11/03 12:48:42;;;;;;;1.25;1.15;;;;;;;;;;5093857;28;20600;-63
2022/11/03 12:51:11;;;;;;;1.63;1.40;;;;;;;;;;5094912;28;20294;-63
2022/11/03 12:53:38;;;;;;;1.40;1.27;;;;;;;;;;5095521;28;20250;-63
2022/11/03 12:56:06;;;;;;;1.40;1.30;;;;;;;;;;5094675;28;20777;-63
2022/11/03 12:58:33;;;;;;;1.80;1.38;;;;;;;;;;5095067;28;20203;-63
2022/11/03 13:01:01;;;;;;;1.45;1.20;;;;;;;;;;5094551;28;20196;-64
2022/11/03 13:03:28;;;;;;;2.00;1.30;;;;;;;;;;5095160;28;20207;-64
2022/11/03 13:05:57;;;;;;;2.20;1.30;;;;;;;;;;5094251;28;20230;-64
2022/11/03 13:08:25;;;;;;;1.55;1.30;;;;;;;;;;5095735;28;20713;-64
2022/11/03 13:10:52;;;;;;;1.40;1.02;;;;;;;;;;5095356;28;20676;-64
2022/11/03 13:13:20;;;;;;;1.52;1.30;;;;;;;;;;5094954;28;20211;-65
2022/11/03 13:15:47;;;;;;;1.67;1.35;;;;;;;;;;5093038;28;20253;-63
2022/11/03 13:18:15;;;;;;;1.27;1.10;;;;;;;;;;5092779;28;20196;-64
2022/11/03 13:20:43;;;;;;;1.30;1.20;;;;;;;;;;5094194;28;20246;-64
2022/11/03 13:23:12;;;;;;;1.30;1.20;;;;;;;;;;5094722;28;20232;-64
2022/11/03 13:25:39;;;;;;;1.23;1.13;;;;;;;;;;5094667;28;20310;-64
2022/11/03 13:28:07;;;;;;;1.20;1.10;;;;;;;;;;5093000;28;20203;-63
2022/11/03 13:30:35;;;;;;;1.35;1.20;;;;;;;;;;5094396;28;20204;-65
2022/11/03 13:33:02;;;;;;;1.08;1.00;;;;;;;;;;5093692;28;20288;-64
2022/11/03 13:35:30;;;;;;;1.00;1.00;;;;;;;;;;5093903;28;20192;-64
2022/11/03 13:37:57;;;;;;;1.40;1.30;;;;;;;;;;5094951;28;20203;-63
2022/11/03 13:40:26;;;;;;;1.33;1.20;;;;;;;;;;5094021;28;20208;-64
2022/11/03 13:42:53;;;;;;;1.42;1.30;;;;;;;;;;5093113;28;20227;-63
2022/11/03 13:45:20;;;;;;;1.63;1.30;;;;;;;;;;5093947;28;20779;-64
2022/11/03 13:47:48;;;;;;;1.58;1.15;;;;;;;;;;5093664;28;20205;-65
2022/11/03 13:50:15;;;;;;;1.27;1.00;;;;;;;;;;5093849;28;20203;-63
2022/11/03 13:52:43;;;;;;;1.10;0.98;;;;;;;;;;5093584;28;20203;-64
2022/11/03 13:55:12;;;;;;;1.05;0.98;;;;;;;;;;5093166;28;20278;-64
2022/11/03 13:57:40;;;;;;;1.00;0.95;;;;;;;;;;5094918;28;20265;-63
2022/11/03 14:00:10;;;;;;;1.40;1.10;;;;;;;;;;5094087;28;20807;-63
2022/11/03 14:02:38;;;;;;;1.23;0.93;;;;;;;;;;5093700;28;20743;-63
2022/11/03 14:05:05;;;;;;;1.50;1.00;;;;;;;;;;5093779;28;20228;-63
2022/11/03 14:07:33;;;;;;;1.30;1.00;;;;;;;;;;5093641;28;20199;-63
2022/11/03 14:10:00;;;;;;;1.33;1.00;;;;;;;;;;5092345;28;20590;-63
2022/11/03 14:12:30;;;;;;;1.27;1.17;;;;;;;;;;5092529;28;20203;-62
2022/11/03 14:14:58;;;;;;;1.55;0.90;;;;;;;;;;5093545;28;20196;-64
2022/11/03 14:17:26;;;;;;;1.13;1.00;;;;;;;;;;5093313;28;20204;-64
2022/11/03 14:19:54;;;;;;;1.02;0.85;;;;;;;;;;5093031;28;20258;-64
2022/11/03 14:22:22;;;;;;;1.15;1.00;;;;;;;;;;5094281;28;20584;-65
2022/11/03 14:24:49;;;;;;;1.20;1.10;;;;;;;;;;5093074;28;20241;-64
2022/11/03 14:27:17;;;;;;;0.93;0.90;;;;;;;;;;5092979;28;20211;-64
2022/11/03 14:29:44;;;;;;;1.27;1.08;;;;;;;;;;5093344;28;20229;-64
2022/11/03 14:32:13;;;;;;;1.00;0.93;;;;;;;;;;5093290;28;20203;-64
2022/11/03 14:34:41;;;;;;;1.30;1.20;;;;;;;;;;5094217;28;20538;-63
2022/11/03 14:37:08;;;;;;;1.30;1.00;;;;;;;;;;5091560;28;20199;-65
2022/11/03 14:39:36;;;;;;;1.10;1.00;;;;;;;;;;5095307;28;20290;-63
2022/11/03 14:42:02;;;;;;;1.85;1.38;;;;;;;;;;5096775;28;20199;-64
2022/11/03 14:44:30;;;;;;;0.90;0.90;;;;;;;;;;5097810;28;20199;-65
2022/11/03 14:46:57;;;;;;;0.98;0.90;;;;;;;;;;5097494;28;20204;-64
2022/11/03 14:49:26;;;;;;;1.25;1.15;;;;;;;;;;5096736;28;20265;-65
2022/11/03 14:51:55;;;;;;;1.05;1.00;;;;;;;;;;5096801;28;20480;-65
2022/11/03 14:54:23;;;;;;;1.02;0.95;;;;;;;;;;5096744;28;20206;-63
2022/11/03 14:56:50;;;;;;;1.13;1.00;;;;;;;;;;5096118;28;20204;-63
2022/11/03 14:59:17;;;;;;;1.13;0.98;;;;;;;;;;5097320;28;20203;-63
2022/11/03 15:01:45;;;;;;;1.08;0.98;;;;;;;;;;5097389;28;20199;-63
2022/11/03 15:04:12;;;;;;;1.10;1.00;;;;;;;;;;5095287;28;20581;-63
2022/11/03 15:06:41;;;;;;;1.20;1.10;;;;;;;;;;5096604;28;20225;-64
2022/11/03 15:09:09;;;;;;;1.00;0.90;;;;;;;;;;5097230;28;20600;-64
2022/11/03 15:11:36;;;;;;;1.40;0.93;;;;;;;;;;5097582;28;20199;-63
2022/11/03 15:14:04;;;;;;;0.90;0.85;;;;;;;;;;5097344;28;20211;-64